Time;durP1;ratioP1;P1;durP2;ratioP2;P2;SDS_P1;SDS_P2;PMS_P1;PMS_P2;Temp;Humidity;BMP_temperature;BMP_pressure;BME280_temperature;BME280_humidity;BME280_pressure;Samples;Min_cycle;Max_cycle;Signal;HPM_P1;HPM_P2
2021/08/21 00:01:44;;;;;;;1.50;0.90;;;19.40;99.90;;;;;;5157286;27;20523;-61
2021/08/21 00:04:13;;;;;;;1.10;0.90;;;19.50;99.90;;;;;;5156735;27;20417;-61
2021/08/21 00:06:39;;;;;;;1.55;0.85;;;19.60;99.90;;;;;;5157232;27;20456;-61
2021/08/21 00:09:07;;;;;;;1.20;0.90;;;19.70;99.90;;;;;;5156583;27;20413;-61
2021/08/21 00:11:33;;;;;;;1.25;0.93;;;19.80;99.90;;;;;;5154798;27;20508;-61
2021/08/21 00:14:00;;;;;;;1.50;0.80;;;19.80;99.90;;;;;;5155356;27;20504;-61
2021/08/21 00:16:28;;;;;;;0.90;0.80;;;19.70;99.90;;;;;;5155749;27;20865;-61
2021/08/21 00:18:57;;;;;;;1.10;0.80;;;19.70;99.90;;;;;;5155801;27;20782;-61
2021/08/21 00:21:24;;;;;;;1.20;0.90;;;19.80;99.90;;;;;;5155948;27;20431;-61
2021/08/21 00:23:51;;;;;;;1.30;0.90;;;19.80;99.90;;;;;;5156516;27;20786;-61
2021/08/21 00:26:17;;;;;;;1.40;0.90;;;19.80;99.90;;;;;;5157037;27;20489;-61
2021/08/21 00:28:45;;;;;;;1.20;0.90;;;19.80;99.90;;;;;;5156705;27;20939;-61
2021/08/21 00:31:11;;;;;;;1.50;0.80;;;19.70;99.90;;;;;;5156293;27;20708;-61
2021/08/21 00:33:38;;;;;;;1.38;0.90;;;19.70;99.90;;;;;;5156781;27;20688;-61
2021/08/21 00:36:06;;;;;;;2.37;1.00;;;19.80;99.90;;;;;;5156275;27;20432;-61
2021/08/21 00:38:34;;;;;;;1.50;0.90;;;19.90;99.90;;;;;;5157001;27;20477;-61
2021/08/21 00:41:00;;;;;;;1.10;0.90;;;20.00;99.90;;;;;;5156457;27;20938;-61
2021/08/21 00:43:29;;;;;;;1.90;0.90;;;20.10;99.90;;;;;;5156344;27;20423;-61
2021/08/21 00:45:56;;;;;;;1.80;0.90;;;20.00;99.90;;;;;;5156473;27;20448;-61
2021/08/21 00:48:23;;;;;;;1.25;0.90;;;19.90;99.90;;;;;;5156827;27;20448;-64
2021/08/21 00:50:50;;;;;;;1.10;0.90;;;19.90;99.90;;;;;;5160476;27;20511;-61
2021/08/21 00:53:18;;;;;;;1.17;1.00;;;19.90;99.90;;;;;;5161098;27;20448;-61
2021/08/21 00:55:48;;;;;;;1.45;1.00;;;19.70;99.90;;;;;;5158853;27;20774;-60
2021/08/21 00:58:15;;;;;;;1.00;0.80;;;19.60;99.90;;;;;;5159729;27;20832;-61
2021/08/21 01:00:43;;;;;;;1.60;0.90;;;19.50;99.90;;;;;;5158333;27;20428;-60
2021/08/21 01:03:10;;;;;;;1.40;1.00;;;19.40;99.90;;;;;;5160156;27;20419;-61
2021/08/21 01:05:37;;;;;;;1.70;1.00;;;19.30;99.90;;;;;;5160557;27;20419;-61
2021/08/21 01:08:05;;;;;;;1.20;0.90;;;19.20;99.90;;;;;;5159877;27;20409;-61
2021/08/21 01:10:33;;;;;;;1.20;1.00;;;19.10;99.90;;;;;;5160104;27;20723;-61
2021/08/21 01:13:00;;;;;;;2.03;1.00;;;19.10;99.90;;;;;;5160255;27;20586;-61
2021/08/21 01:15:28;;;;;;;2.63;0.90;;;19.20;99.90;;;;;;5160187;27;20783;-61
2021/08/21 01:17:56;;;;;;;1.17;0.88;;;19.30;99.90;;;;;;5160125;27;20426;-61
2021/08/21 01:20:25;;;;;;;1.17;0.90;;;19.30;99.90;;;;;;5160008;27;20846;-61
2021/08/21 01:22:51;;;;;;;1.90;1.00;;;19.30;99.90;;;;;;5160500;27;20731;-61
2021/08/21 01:25:22;;;;;;;1.40;0.90;;;19.50;99.90;;;;;;5151990;27;20909;-61
2021/08/21 01:27:51;;;;;;;1.30;0.90;;;19.70;99.90;;;;;;5160141;27;20408;-61
2021/08/21 01:30:18;;;;;;;1.05;0.90;;;19.80;99.90;;;;;;5159155;27;20421;-61
2021/08/21 01:32:45;;;;;;;1.00;0.80;;;19.80;99.90;;;;;;5159203;27;20412;-62
2021/08/21 01:35:12;;;;;;;2.30;1.00;;;19.90;99.90;;;;;;5159797;27;20827;-60
2021/08/21 01:37:39;;;;;;;1.20;0.90;;;20.00;99.90;;;;;;5159650;27;20500;-61
2021/08/21 01:40:07;;;;;;;1.55;1.00;;;20.00;99.90;;;;;;5158746;27;20661;-61
2021/08/21 01:42:34;;;;;;;1.30;0.90;;;19.90;99.90;;;;;;5159466;27;20412;-61
2021/08/21 01:45:02;;;;;;;1.63;0.90;;;19.80;99.90;;;;;;5159523;27;20431;-61
2021/08/21 01:47:29;;;;;;;2.03;1.10;;;19.70;99.90;;;;;;5159253;27;20413;-60
2021/08/21 01:50:01;;;;;;;1.50;1.07;;;19.70;99.90;;;;;;5159651;27;20427;-61
2021/08/21 01:52:28;;;;;;;1.50;1.10;;;19.60;99.90;;;;;;5159700;27;20715;-61
2021/08/21 01:54:55;;;;;;;1.70;0.90;;;19.60;99.90;;;;;;5158479;27;20427;-61
2021/08/21 01:57:22;;;;;;;1.60;1.00;;;19.70;99.90;;;;;;5158418;27;20828;-61
2021/08/21 01:59:51;;;;;;;1.70;1.02;;;19.80;99.90;;;;;;5158209;27;20512;-61
2021/08/21 02:02:21;;;;;;;1.60;1.00;;;19.80;99.90;;;;;;5156864;27;20425;-61
2021/08/21 02:04:48;;;;;;;1.60;1.10;;;19.80;99.90;;;;;;5154113;27;20423;-61
2021/08/21 02:07:15;;;;;;;1.20;0.90;;;19.70;99.90;;;;;;5153262;27;20499;-61
2021/08/21 02:09:42;;;;;;;1.30;1.00;;;19.70;99.90;;;;;;5158299;27;20434;-60
2021/08/21 02:12:09;;;;;;;1.27;0.90;;;19.60;99.90;;;;;;5158529;27;20416;-61
2021/08/21 02:14:36;;;;;;;1.80;0.90;;;19.60;99.90;;;;;;5157372;27;20462;-61
2021/08/21 02:17:04;;;;;;;1.70;0.90;;;19.50;99.90;;;;;;5156891;27;20413;-61
2021/08/21 02:19:33;;;;;;;1.20;0.95;;;19.40;99.90;;;;;;5157463;27;20507;-61
2021/08/21 02:22:02;;;;;;;1.10;0.90;;;19.40;99.90;;;;;;5157459;27;20459;-60
2021/08/21 02:24:30;;;;;;;2.00;1.00;;;19.30;99.90;;;;;;5156856;27;20413;-61
2021/08/21 02:26:59;;;;;;;1.40;0.90;;;19.30;99.90;;;;;;5157484;27;20658;-61
2021/08/21 02:29:26;;;;;;;1.40;1.00;;;19.20;99.90;;;;;;5158012;27;20685;-61
2021/08/21 02:31:55;;;;;;;1.20;1.00;;;19.10;99.90;;;;;;5158993;27;20419;-61
2021/08/21 02:34:22;;;;;;;1.53;1.17;;;19.00;99.90;;;;;;5158556;27;20436;-60
2021/08/21 02:36:51;;;;;;;1.90;1.00;;;18.90;99.90;;;;;;5158309;27;20417;-60
2021/08/21 02:39:18;;;;;;;1.20;0.90;;;18.90;99.90;;;;;;5158828;27;20707;-61
2021/08/21 02:41:46;;;;;;;1.30;0.90;;;18.90;99.90;;;;;;5157876;27;20429;-61
2021/08/21 02:44:13;;;;;;;1.92;1.00;;;19.10;99.90;;;;;;5158081;27;20832;-61
2021/08/21 02:46:40;;;;;;;1.10;0.80;;;19.10;99.90;;;;;;5158366;27;20412;-61
2021/08/21 02:49:07;;;;;;;2.05;0.90;;;19.20;99.90;;;;;;5158927;27;20411;-60
2021/08/21 02:51:34;;;;;;;1.73;0.90;;;19.10;99.90;;;;;;5158310;27;20420;-61
2021/08/21 02:54:02;;;;;;;1.10;0.90;;;19.00;99.90;;;;;;5157365;27;20408;-60
2021/08/21 02:56:29;;;;;;;1.67;0.93;;;19.00;99.90;;;;;;5157793;27;20425;-61
2021/08/21 02:58:56;;;;;;;1.10;1.00;;;19.00;99.90;;;;;;5158071;27;20413;-60
2021/08/21 03:01:23;;;;;;;1.70;1.00;;;19.00;99.90;;;;;;5157915;27;20708;-61
2021/08/21 03:03:49;;;;;;;1.30;1.00;;;18.90;99.90;;;;;;5157800;27;20838;-60
2021/08/21 03:06:16;;;;;;;1.30;0.80;;;18.90;99.90;;;;;;5158384;27;20733;-60
2021/08/21 03:08:43;;;;;;;1.42;1.00;;;18.90;99.90;;;;;;5157630;27;20519;-60
2021/08/21 03:11:12;;;;;;;1.20;0.90;;;18.70;99.90;;;;;;5157661;27;20423;-61
2021/08/21 03:13:40;;;;;;;1.13;0.95;;;18.60;99.90;;;;;;5156447;27;20413;-60
2021/08/21 03:16:07;;;;;;;1.20;0.80;;;18.60;99.90;;;;;;5157610;27;20420;-60
2021/08/21 03:18:34;;;;;;;1.50;0.90;;;18.60;99.90;;;;;;5157676;27;20421;-61
2021/08/21 03:21:01;;;;;;;1.38;1.02;;;18.50;99.90;;;;;;5157688;27;20428;-60
2021/08/21 03:23:28;;;;;;;1.60;1.00;;;18.50;99.90;;;;;;5157642;27;20416;-60
2021/08/21 03:25:55;;;;;;;1.30;1.00;;;18.60;99.90;;;;;;5157902;27;20416;-60
2021/08/21 03:28:23;;;;;;;1.40;1.00;;;18.60;99.90;;;;;;5157796;27;20678;-60
2021/08/21 03:30:50;;;;;;;1.67;0.90;;;18.60;99.90;;;;;;5157404;27;20427;-60
2021/08/21 03:33:17;;;;;;;1.30;0.90;;;18.60;99.90;;;;;;5157266;27;20413;-60
2021/08/21 03:35:44;;;;;;;1.10;0.90;;;18.70;99.90;;;;;;5149157;27;20428;-60
2021/08/21 03:38:11;;;;;;;1.20;0.90;;;18.80;99.90;;;;;;5157752;27;20451;-60
2021/08/21 03:40:38;;;;;;;1.20;1.00;;;18.70;99.90;;;;;;5156924;27;20507;-60
2021/08/21 03:43:05;;;;;;;1.60;1.00;;;18.70;99.90;;;;;;5156992;27;20425;-60
2021/08/21 03:45:33;;;;;;;1.55;1.00;;;18.60;99.90;;;;;;5157212;27;20424;-61
2021/08/21 03:48:00;;;;;;;1.50;0.90;;;18.60;99.90;;;;;;5156934;27;20412;-60
2021/08/21 03:50:27;;;;;;;1.20;0.90;;;18.60;99.90;;;;;;5157026;27;20425;-60
2021/08/21 03:52:54;;;;;;;1.38;1.00;;;18.60;99.90;;;;;;5157346;27;20405;-61
2021/08/21 03:55:21;;;;;;;1.52;0.90;;;18.60;99.90;;;;;;5157139;27;20420;-60
2021/08/21 03:57:48;;;;;;;1.50;1.00;;;18.50;99.90;;;;;;5156910;27;20413;-60
2021/08/21 04:00:16;;;;;;;1.40;1.00;;;18.50;99.90;;;;;;5156306;27;20719;-60
2021/08/21 04:02:44;;;;;;;1.40;1.00;;;18.60;99.90;;;;;;5156452;27;20425;-59
2021/08/21 04:05:11;;;;;;;1.80;1.00;;;18.40;99.90;;;;;;5155547;27;20423;-59
2021/08/21 04:07:38;;;;;;;1.80;1.00;;;18.40;99.90;;;;;;5157033;27;20455;-60
2021/08/21 04:10:07;;;;;;;1.75;1.00;;;18.30;99.90;;;;;;5157038;27;20463;-60
2021/08/21 04:12:35;;;;;;;1.53;1.00;;;18.30;99.90;;;;;;5156677;27;20401;-60
2021/08/21 04:15:02;;;;;;;1.38;1.00;;;18.20;99.90;;;;;;5156182;27;20786;-60
2021/08/21 04:17:29;;;;;;;1.20;0.90;;;18.20;99.90;;;;;;5156120;27;20419;-60
2021/08/21 04:19:57;;;;;;;1.20;1.00;;;18.20;99.90;;;;;;5155973;27;20421;-60
2021/08/21 04:22:24;;;;;;;1.43;1.00;;;18.30;99.90;;;;;;5155876;27;20429;-60
2021/08/21 04:24:51;;;;;;;1.90;0.90;;;18.30;99.90;;;;;;5155012;27;20421;-60
2021/08/21 04:27:18;;;;;;;1.30;1.00;;;18.40;99.90;;;;;;5156068;27;20720;-60
2021/08/21 04:29:46;;;;;;;1.20;0.90;;;18.40;99.90;;;;;;5155705;27;20425;-61
2021/08/21 04:32:12;;;;;;;1.30;0.90;;;18.30;99.90;;;;;;5154791;27;20413;-60
2021/08/21 04:34:39;;;;;;;2.20;1.00;;;18.30;99.90;;;;;;5155344;27;20756;-60
2021/08/21 04:37:08;;;;;;;1.33;0.90;;;18.30;99.90;;;;;;5155119;27;20409;-60
2021/08/21 04:39:35;;;;;;;1.50;1.10;;;18.30;99.90;;;;;;5154953;27;20440;-59
2021/08/21 04:42:01;;;;;;;3.70;1.20;;;18.30;99.90;;;;;;5154797;27;20420;-60
2021/08/21 04:44:28;;;;;;;1.70;1.10;;;18.40;99.90;;;;;;5154554;27;20419;-60
2021/08/21 04:46:56;;;;;;;2.33;1.00;;;18.40;99.90;;;;;;5156346;27;20658;-60
2021/08/21 04:49:23;;;;;;;1.30;1.00;;;18.40;99.90;;;;;;5156226;27;20416;-59
2021/08/21 04:51:50;;;;;;;1.60;1.00;;;18.40;99.90;;;;;;5156101;27;20720;-60
2021/08/21 04:54:18;;;;;;;1.40;1.00;;;18.40;99.90;;;;;;5156467;27;20901;-60
2021/08/21 04:56:45;;;;;;;1.35;1.00;;;18.40;99.90;;;;;;5156431;27;20735;-61
2021/08/21 04:59:12;;;;;;;1.77;1.10;;;18.40;99.90;;;;;;5156324;27;20409;-60
2021/08/21 05:01:38;;;;;;;1.48;1.10;;;18.40;99.90;;;;;;5156378;27;20429;-60
2021/08/21 05:04:05;;;;;;;1.90;1.00;;;18.40;99.90;;;;;;5156416;27;20415;-60
2021/08/21 05:06:32;;;;;;;1.67;1.05;;;18.50;99.90;;;;;;5156263;27;20421;-60
2021/08/21 05:08:59;;;;;;;1.30;1.00;;;18.60;99.90;;;;;;5155989;27;20412;-60
2021/08/21 05:11:27;;;;;;;1.30;0.90;;;18.60;99.90;;;;;;5156045;27;20508;-60
2021/08/21 05:13:54;;;;;;;2.53;1.10;;;18.70;99.90;;;;;;5156194;27;20413;-60
2021/08/21 05:16:21;;;;;;;2.65;1.08;;;18.70;99.90;;;;;;5154839;27;20420;-60
2021/08/21 05:18:51;;;;;;;1.15;0.90;;;18.70;99.90;;;;;;5154488;27;20712;-60
2021/08/21 05:21:26;;;;;;;1.30;1.00;;;18.60;99.90;;;;;;5154107;27;20432;-60
2021/08/21 05:23:53;;;;;;;1.95;1.30;;;18.60;99.90;;;;;;5155054;27;20416;-60
2021/08/21 05:26:20;;;;;;;1.60;0.90;;;18.40;99.90;;;;;;5155276;27;20798;-60
2021/08/21 05:28:49;;;;;;;1.42;1.10;;;18.50;99.90;;;;;;5155403;27;20420;-60
2021/08/21 05:31:16;;;;;;;1.80;1.00;;;18.60;99.90;;;;;;5156163;27;20515;-60
2021/08/21 05:33:42;;;;;;;1.67;1.05;;;18.70;99.90;;;;;;5155742;27;20952;-60
2021/08/21 05:36:09;;;;;;;1.35;1.00;;;18.80;99.90;;;;;;5156980;27;20417;-60
2021/08/21 05:38:36;;;;;;;1.45;1.10;;;18.90;99.90;;;;;;5159470;27;20419;-61
2021/08/21 05:41:03;;;;;;;2.10;1.35;;;18.90;99.90;;;;;;5158867;27;20420;-60
2021/08/21 05:43:30;;;;;;;2.08;1.33;;;19.00;99.90;;;;;;5157984;27;20496;-60
2021/08/21 05:45:58;;;;;;;2.13;1.20;;;19.00;99.90;;;;;;5159129;27;20425;-60
2021/08/21 05:48:25;;;;;;;1.63;1.10;;;19.00;99.90;;;;;;5159951;27;20435;-60
2021/08/21 05:50:52;;;;;;;1.75;1.00;;;19.00;99.90;;;;;;5159802;27;20416;-60
2021/08/21 05:53:19;;;;;;;1.80;1.43;;;19.20;99.90;;;;;;5159225;27;20409;-60
2021/08/21 05:55:49;;;;;;;2.20;1.10;;;19.30;99.90;;;;;;5158939;27;20428;-61
2021/08/21 05:58:15;;;;;;;1.60;1.20;;;19.30;99.90;;;;;;5159513;27;20485;-61
2021/08/21 06:00:42;;;;;;;1.40;1.00;;;19.30;99.90;;;;;;5158388;27;20413;-60
2021/08/21 06:03:10;;;;;;;1.92;1.20;;;19.20;99.90;;;;;;5158773;27;20513;-60
2021/08/21 06:05:41;;;;;;;1.55;1.00;;;19.20;99.90;;;;;;5158461;27;20878;-60
2021/08/21 06:08:08;;;;;;;1.52;1.10;;;19.20;99.90;;;;;;5158126;27;20416;-61
2021/08/21 06:10:35;;;;;;;2.70;1.00;;;19.20;99.90;;;;;;5157462;27;20508;-61
2021/08/21 06:13:01;;;;;;;1.40;1.23;;;19.30;99.90;;;;;;5158006;27;20404;-61
2021/08/21 06:15:28;;;;;;;1.50;1.20;;;19.40;99.90;;;;;;5158881;27;20420;-61
2021/08/21 06:17:55;;;;;;;2.05;1.02;;;19.40;99.90;;;;;;5158907;27;20692;-61
2021/08/21 06:20:23;;;;;;;1.40;1.10;;;19.50;99.90;;;;;;5158805;27;20421;-62
2021/08/21 06:22:51;;;;;;;1.20;1.00;;;19.60;99.90;;;;;;5158849;27;20424;-62
2021/08/21 06:25:18;;;;;;;1.30;0.90;;;19.80;99.90;;;;;;5158623;27;20424;-62
2021/08/21 06:27:45;;;;;;;2.00;1.20;;;19.80;99.90;;;;;;5158813;27;20697;-60
2021/08/21 06:30:13;;;;;;;1.33;1.10;;;19.80;99.90;;;;;;5157941;27;20447;-60
2021/08/21 06:32:40;;;;;;;1.40;1.10;;;19.70;99.90;;;;;;5158079;27;20900;-60
2021/08/21 06:35:08;;;;;;;1.40;1.00;;;19.70;99.90;;;;;;5157894;27;20496;-60
2021/08/21 06:37:36;;;;;;;1.50;1.00;;;19.80;99.90;;;;;;5156932;27;20504;-60
2021/08/21 06:40:05;;;;;;;1.77;1.00;;;20.00;99.90;;;;;;5156708;27;20421;-62
2021/08/21 06:42:31;;;;;;;3.17;1.00;;;20.20;99.90;;;;;;5156487;27;20427;-60
2021/08/21 06:44:59;;;;;;;1.60;1.20;;;20.30;99.90;;;;;;5155137;27;20421;-62
2021/08/21 06:47:25;;;;;;;2.90;1.10;;;20.10;99.90;;;;;;5148842;27;20817;-63
2021/08/21 06:49:52;;;;;;;2.20;1.40;;;20.10;99.90;;;;;;5154017;27;20515;-62
2021/08/21 06:52:19;;;;;;;1.60;1.00;;;20.10;99.90;;;;;;5154318;27;20491;-63
2021/08/21 06:54:47;;;;;;;2.00;1.73;;;20.10;99.90;;;;;;5154347;27;20416;-63
2021/08/21 06:57:14;;;;;;;1.80;1.20;;;20.00;99.90;;;;;;5153890;27;20409;-63
2021/08/21 06:59:41;;;;;;;1.52;1.20;;;19.90;99.90;;;;;;5153570;27;20413;-63
2021/08/21 07:02:08;;;;;;;2.00;1.40;;;19.80;99.90;;;;;;5156429;27;20507;-63
2021/08/21 07:04:35;;;;;;;1.70;1.20;;;19.80;99.90;;;;;;5155460;27;20407;-63
2021/08/21 07:07:02;;;;;;;2.20;1.20;;;19.70;99.90;;;;;;5156129;27;20409;-63
2021/08/21 07:09:29;;;;;;;2.30;1.30;;;19.70;99.90;;;;;;5155519;27;20413;-63
2021/08/21 07:11:57;;;;;;;2.00;1.10;;;19.60;99.90;;;;;;5156971;27;20689;-60
2021/08/21 07:14:24;;;;;;;2.30;1.20;;;19.60;99.90;;;;;;5156736;27;20769;-60
2021/08/21 07:16:51;;;;;;;2.40;1.10;;;19.80;99.90;;;;;;5156490;27;20413;-59
2021/08/21 07:19:18;;;;;;;1.80;1.30;;;20.00;99.90;;;;;;5157598;27;20508;-59
2021/08/21 07:21:45;;;;;;;1.90;1.00;;;20.10;99.90;;;;;;5157541;27;20417;-59
2021/08/21 07:24:12;;;;;;;1.98;1.00;;;20.10;99.90;;;;;;5157823;27;20517;-60
2021/08/21 07:26:39;;;;;;;2.20;1.20;;;20.30;99.90;;;;;;5157392;27;20704;-59
2021/08/21 07:29:07;;;;;;;2.30;1.00;;;20.60;99.90;;;;;;5157424;27;20674;-59
2021/08/21 07:31:34;;;;;;;1.20;0.90;;;20.80;99.90;;;;;;5157302;27;20417;-61
2021/08/21 07:34:01;;;;;;;1.40;1.00;;;20.90;99.90;;;;;;5157043;27;20731;-61
2021/08/21 07:36:28;;;;;;;1.35;1.00;;;20.90;99.90;;;;;;5157055;27;20416;-60
2021/08/21 07:38:55;;;;;;;1.40;1.10;;;21.00;99.90;;;;;;5156850;27;20485;-59
2021/08/21 07:41:22;;;;;;;1.10;0.90;;;21.10;99.90;;;;;;5156593;27;20424;-59
2021/08/21 07:43:49;;;;;;;1.42;1.10;;;21.20;99.90;;;;;;5153829;27;20420;-59
2021/08/21 07:46:17;;;;;;;2.10;1.10;;;21.40;99.90;;;;;;5155923;27;20882;-59
2021/08/21 07:48:44;;;;;;;1.40;1.13;;;21.30;99.90;;;;;;5153544;27;20423;-59
2021/08/21 07:51:15;;;;;;;1.30;0.90;;;21.20;99.90;;;;;;5150535;27;20437;-59
2021/08/21 07:53:42;;;;;;;1.30;0.93;;;21.30;99.90;;;;;;5139722;27;20414;-59
2021/08/21 07:56:09;;;;;;;2.60;1.02;;;21.40;99.90;;;;;;5149979;27;20435;-59
2021/08/21 07:58:36;;;;;;;1.10;0.90;;;21.50;99.90;;;;;;5154917;27;20832;-59
2021/08/21 08:01:03;;;;;;;1.52;1.10;;;21.40;99.90;;;;;;5156696;27;20828;-59
2021/08/21 08:03:31;;;;;;;1.50;1.30;;;21.40;99.90;;;;;;5156014;27;20430;-59
2021/08/21 08:05:58;;;;;;;1.60;1.10;;;21.40;99.90;;;;;;5156873;27;20794;-61
2021/08/21 08:08:25;;;;;;;1.90;0.90;;;21.40;99.90;;;;;;5156110;27;20423;-59
2021/08/21 08:10:52;;;;;;;1.20;0.90;;;21.50;99.90;;;;;;5156158;27;20511;-58
2021/08/21 08:13:19;;;;;;;1.40;0.90;;;21.50;99.90;;;;;;5156434;27;20405;-59
2021/08/21 08:15:46;;;;;;;1.13;0.90;;;21.70;99.90;;;;;;5155258;27;20420;-58
2021/08/21 08:18:15;;;;;;;1.30;1.00;;;21.70;99.90;;;;;;5155895;27;20469;-58
2021/08/21 08:20:43;;;;;;;1.70;1.00;;;21.70;99.90;;;;;;5153464;27;20413;-59
2021/08/21 08:23:11;;;;;;;2.90;1.00;;;21.80;99.90;;;;;;5153484;27;20856;-59
2021/08/21 08:25:38;;;;;;;1.20;1.00;;;21.80;99.90;;;;;;5154976;27;20697;-58
2021/08/21 08:28:06;;;;;;;1.65;0.85;;;21.80;99.90;;;;;;5154303;27;20419;-59
2021/08/21 08:30:33;;;;;;;1.80;1.00;;;21.70;99.90;;;;;;5153730;27;20932;-58
2021/08/21 08:33:00;;;;;;;1.20;0.90;;;21.80;99.90;;;;;;5153258;27;20840;-60
2021/08/21 08:35:27;;;;;;;1.38;0.90;;;22.00;99.90;;;;;;5154926;27;20508;-60
2021/08/21 08:37:55;;;;;;;1.70;1.00;;;22.20;99.90;;;;;;5154009;27;20444;-60
2021/08/21 08:40:25;;;;;;;1.73;1.05;;;22.30;99.90;;;;;;5153879;27;20421;-60
2021/08/21 08:42:52;;;;;;;1.60;0.90;;;22.30;99.90;;;;;;5154779;27;20779;-60
2021/08/21 08:45:19;;;;;;;1.42;1.20;;;22.40;99.90;;;;;;5155753;27;20421;-60
2021/08/21 08:47:46;;;;;;;2.90;1.00;;;22.50;99.90;;;;;;5156014;27;20409;-60
2021/08/21 08:50:14;;;;;;;1.25;0.90;;;22.60;99.90;;;;;;5155844;27;20511;-60
2021/08/21 08:52:41;;;;;;;2.00;0.90;;;22.80;99.90;;;;;;5156327;27;20806;-60
2021/08/21 08:55:10;;;;;;;1.40;0.90;;;23.00;99.90;;;;;;5155001;27;20431;-59
2021/08/21 08:57:40;;;;;;;1.37;0.90;;;23.00;99.90;;;;;;5155530;27;20420;-60
2021/08/21 09:00:09;;;;;;;2.00;1.00;;;23.10;99.90;;;;;;5154500;27;20432;-59
2021/08/21 09:02:38;;;;;;;1.75;0.93;;;23.40;99.90;;;;;;5154044;27;20423;-59
2021/08/21 09:05:09;;;;;;;1.60;0.90;;;23.40;99.90;;;;;;5154241;27;20431;-59
2021/08/21 09:07:45;;;;;;;1.20;0.80;;;23.50;99.90;;;;;;5154922;27;20460;-59
2021/08/21 09:10:16;;;;;;;1.90;0.90;;;23.60;99.90;;;;;;5154692;27;20546;-59
2021/08/21 09:12:43;;;;;;;1.30;1.10;;;23.80;99.90;;;;;;5159031;27;20503;-60
2021/08/21 09:15:22;;;;;;;1.70;0.80;;;23.90;99.90;;;;;;5157618;27;20838;-61
2021/08/21 09:18:00;;;;;;;2.15;1.00;;;23.90;99.90;;;;;;5157325;27;20507;-61
2021/08/21 09:20:27;;;;;;;1.40;0.90;;;23.90;99.90;;;;;;5157875;27;20451;-59
2021/08/21 09:22:54;;;;;;;2.70;1.00;;;23.90;99.90;;;;;;5157667;27;20435;-59
2021/08/21 09:25:30;;;;;;;2.10;1.00;;;23.80;99.90;;;;;;5156179;27;20515;-60
2021/08/21 09:27:57;;;;;;;1.60;0.90;;;23.90;99.90;;;;;;5155938;27;20419;-58
2021/08/21 09:30:27;;;;;;;1.67;1.00;;;24.10;99.90;;;;;;5158327;27;20818;-60
2021/08/21 09:33:03;;;;;;;2.80;0.90;;;24.20;99.90;;;;;;5158107;27;20541;-61
2021/08/21 09:35:34;;;;;;;1.10;0.80;;;24.40;99.90;;;;;;5153438;27;20442;-60
2021/08/21 09:38:02;;;;;;;1.10;0.88;;;24.50;99.90;;;;;;5156570;27;20431;-59
2021/08/21 09:40:33;;;;;;;1.30;0.90;;;24.60;99.90;;;;;;5158000;27;20875;-60
2021/08/21 09:43:00;;;;;;;1.30;1.00;;;24.60;99.90;;;;;;5153347;27;20428;-60
2021/08/21 09:45:27;;;;;;;1.20;0.90;;;24.70;99.90;;;;;;5149793;27;20808;-60
2021/08/21 09:48:01;;;;;;;1.40;1.00;;;24.50;99.90;;;;;;5156825;27;20861;-60
2021/08/21 09:50:32;;;;;;;1.58;0.88;;;24.50;99.90;;;;;;5150411;27;20546;-60
2021/08/21 09:53:05;;;;;;;1.20;0.90;;;24.60;99.90;;;;;;5152144;27;20457;-59
2021/08/21 09:55:34;;;;;;;1.80;1.00;;;24.70;99.90;;;;;;5153755;27;20432;-60
2021/08/21 09:58:04;;;;;;;1.30;0.90;;;25.00;99.90;;;;;;5156518;27;20419;-60
2021/08/21 10:00:33;;;;;;;1.20;0.90;;;25.10;99.90;;;;;;5156980;27;20467;-60
2021/08/21 10:03:03;;;;;;;1.50;1.00;;;25.40;99.90;;;;;;5158097;27;20419;-60
2021/08/21 10:05:30;;;;;;;1.10;0.90;;;25.70;99.90;;;;;;5155327;27;20428;-62
2021/08/21 10:08:00;;;;;;;1.10;0.90;;;25.90;99.90;;;;;;5153332;27;20439;-60
2021/08/21 10:10:33;;;;;;;1.67;1.10;;;26.10;99.90;;;;;;5152555;27;20423;-60
2021/08/21 10:13:08;;;;;;;2.33;1.03;;;26.20;99.90;;;;;;5151788;27;20654;-60
2021/08/21 10:15:38;;;;;;;1.20;1.00;;;26.10;99.90;;;;;;5149839;27;20459;-59
2021/08/21 10:18:06;;;;;;;1.77;1.20;;;26.20;99.90;;;;;;5149875;27;20867;-60
2021/08/21 10:20:33;;;;;;;1.10;0.93;;;26.60;99.90;;;;;;5149513;27;20432;-59
2021/08/21 10:23:09;;;;;;;1.10;1.00;;;26.70;99.90;;;;;;5150226;27;20589;-60
2021/08/21 10:25:38;;;;;;;1.40;1.10;;;26.70;99.90;;;;;;5152109;27;20858;-59
2021/08/21 10:28:07;;;;;;;1.30;1.00;;;26.60;99.90;;;;;;5153915;27;20464;-59
2021/08/21 10:30:42;;;;;;;1.65;1.10;;;26.70;99.90;;;;;;5154903;27;20417;-60
2021/08/21 10:33:09;;;;;;;1.80;1.00;;;27.00;99.90;;;;;;5152516;27;20802;-60
2021/08/21 10:35:48;;;;;;;1.50;1.13;;;27.00;99.90;;;;;;5149025;27;20558;-60
2021/08/21 10:38:36;;;;;;;2.25;1.00;;;27.20;99.90;;;;;;5157729;27;20416;-60
2021/08/21 10:41:34;;;;;;;1.30;1.00;;;27.60;99.90;;;;;;5150846;27;20428;-59
2021/08/21 10:44:04;;;;;;;1.20;0.90;;;28.20;99.90;;;;;;5155204;27;20851;-60
2021/08/21 10:46:52;;;;;;;1.90;1.20;;;28.40;99.90;;;;;;5157439;27;20420;-60
2021/08/21 10:49:44;;;;;;;1.50;1.10;;;28.50;99.90;;;;;;5151652;27;20428;-60
2021/08/21 10:52:46;;;;;;;1.90;1.05;;;28.10;99.90;;;;;;5155322;27;20590;-63
2021/08/21 10:55:18;;;;;;;2.35;1.00;;;27.60;99.90;;;;;;5153905;27;20424;-63
2021/08/21 10:58:00;;;;;;;1.40;1.00;;;27.80;99.90;;;;;;5154778;27;20520;-62
2021/08/21 11:00:55;;;;;;;1.10;1.00;;;28.30;99.90;;;;;;5153931;27;20527;-62
2021/08/21 11:03:45;;;;;;;1.30;1.00;;;28.40;99.90;;;;;;5154303;27;20426;-62
2021/08/21 11:06:13;;;;;;;1.30;1.10;;;28.40;99.90;;;;;;5155577;27;20839;-63
2021/08/21 11:09:08;;;;;;;1.23;1.02;;;28.90;99.90;;;;;;5157399;27;20496;-63
2021/08/21 11:11:42;;;;;;;1.30;1.10;;;29.00;99.90;;;;;;5110869;27;20958;-64
2021/08/21 11:14:33;;;;;;;1.40;1.00;;;28.90;99.90;;;;;;5147691;27;20425;-62
2021/08/21 11:17:02;;;;;;;1.40;1.20;;;29.00;99.90;;;;;;5150044;27;20504;-63
2021/08/21 11:19:37;;;;;;;1.30;1.10;;;29.00;99.90;;;;;;5154817;27;20443;-62
2021/08/21 11:22:30;;;;;;;2.10;1.10;;;28.80;99.90;;;;;;5151864;27;20747;-63
2021/08/21 11:25:24;;;;;;;1.90;1.00;;;28.50;99.90;;;;;;5147713;27;20429;-63
2021/08/21 11:28:05;;;;;;;2.53;1.00;;;28.50;99.90;;;;;;5152771;27;20801;-63
2021/08/21 11:30:38;;;;;;;1.42;1.10;;;28.60;99.90;;;;;;5153715;27;21266;-64
2021/08/21 11:33:26;;;;;;;1.80;1.10;;;28.70;99.90;;;;;;5154303;27;20469;-64
2021/08/21 11:35:53;;;;;;;2.85;1.20;;;28.80;99.90;;;;;;5155989;27;20424;-63
2021/08/21 11:38:27;;;;;;;1.65;1.10;;;29.10;99.90;;;;;;5154641;27;20413;-63
2021/08/21 11:40:55;;;;;;;1.98;1.00;;;29.50;99.90;;;;;;5155070;27;20453;-62
2021/08/21 11:43:24;;;;;;;1.58;1.10;;;29.80;99.90;;;;;;5154810;27;20421;-62
2021/08/21 11:45:52;;;;;;;1.10;0.93;;;29.90;99.90;;;;;;5154244;27;20419;-62
2021/08/21 11:48:26;;;;;;;1.30;1.00;;;29.60;99.90;;;;;;5154402;27;20835;-64
2021/08/21 11:50:53;;;;;;;1.45;1.05;;;29.70;99.90;;;;;;5154608;27;20994;-63
2021/08/21 11:53:22;;;;;;;2.05;1.00;;;29.60;99.90;;;;;;5154724;27;20524;-63
2021/08/21 11:55:51;;;;;;;1.30;1.00;;;29.90;99.90;;;;;;5155440;27;20500;-63
2021/08/21 11:58:26;;;;;;;1.50;1.00;;;30.10;99.90;;;;;;5154093;27;20412;-63
2021/08/21 12:00:55;;;;;;;1.30;1.10;;;30.20;99.90;;;;;;5155893;27;20459;-64
2021/08/21 12:03:34;;;;;;;1.30;1.10;;;29.80;99.90;;;;;;5153877;27;20832;-62
2021/08/21 12:06:00;;;;;;;1.10;0.98;;;29.90;99.90;;;;;;5152415;27;20432;-63
2021/08/21 12:08:28;;;;;;;1.30;1.08;;;30.00;99.90;;;;;;5153578;27;20413;-63
2021/08/21 12:10:58;;;;;;;1.40;1.00;;;30.10;99.90;;;;;;5153714;27;20794;-63
2021/08/21 12:13:28;;;;;;;1.30;1.10;;;30.50;99.90;;;;;;5153679;27;20427;-63
2021/08/21 12:15:56;;;;;;;2.42;0.90;;;30.20;99.90;;;;;;5154132;27;20711;-64
2021/08/21 12:18:26;;;;;;;1.60;0.90;;;30.10;99.90;;;;;;5152752;27;20834;-64
2021/08/21 12:20:53;;;;;;;1.60;0.80;;;30.10;99.90;;;;;;5152653;27;20421;-63
2021/08/21 12:23:20;;;;;;;1.08;0.90;;;30.20;99.90;;;;;;5151636;27;20417;-64
2021/08/21 12:25:53;;;;;;;1.70;0.90;;;30.20;99.90;;;;;;5151818;27;20432;-63
2021/08/21 12:28:24;;;;;;;1.00;0.90;;;30.20;99.90;;;;;;5150576;27;20412;-63
2021/08/21 12:30:58;;;;;;;1.10;1.00;;;29.90;99.90;;;;;;5150406;27;20425;-63
2021/08/21 12:33:45;;;;;;;1.50;1.00;;;29.90;99.90;;;;;;5152384;27;20849;-63
2021/08/21 12:36:18;;;;;;;1.38;1.25;;;29.70;99.90;;;;;;5152134;27;20446;-63
2021/08/21 12:39:03;;;;;;;1.50;0.90;;;29.50;99.90;;;;;;5152889;27;20404;-62
2021/08/21 12:41:33;;;;;;;2.40;1.05;;;29.90;99.90;;;;;;5153231;27;20420;-63
2021/08/21 12:44:05;;;;;;;1.10;0.90;;;29.80;99.90;;;;;;5153860;27;20427;-63
2021/08/21 12:46:32;;;;;;;2.30;0.80;;;29.80;99.90;;;;;;5147857;27;20989;-63
2021/08/21 12:49:07;;;;;;;1.60;1.00;;;29.90;99.90;;;;;;5135475;27;20505;-62
2021/08/21 12:51:40;;;;;;;1.40;0.90;;;30.10;99.90;;;;;;5135947;27;20714;-64
2021/08/21 12:54:08;;;;;;;1.10;1.00;;;30.40;99.90;;;;;;5136014;27;20406;-63
2021/08/21 12:56:35;;;;;;;2.50;1.00;;;30.30;99.90;;;;;;5156348;27;20568;-62
2021/08/21 12:59:09;;;;;;;2.03;0.80;;;30.00;99.90;;;;;;5157286;27;20419;-63